Flight Track Log - Related Links

Times and Time Zones

All times are in EDT time to prevent confusion due to time zone crossing. See the SWA3937 flight status page for this flight to view local times or setup timezone preferences in your user account.

Time Position Orientation Groundspeed Altitude Reporting Facility
EDT Latitude Longitude Course Direction KTS MPH feet Rate Location/Type
Fri 02:52:01 PM 33.4333 -111.9833 90° East 189 217 1,800  Level Phoenix TRACON
Fri 02:52:31 PM 33.4333 -111.9500 90° East 176 203 2,800 2,063 Climbing Phoenix TRACON
Fri 02:53:37 PM 33.4333 -111.8667 90° East 250 288 5,100 2,235 Climbing Phoenix TRACON
Fri 02:54:13 PM 33.4267 -111.8331 103° East 264 304 6,600 3,402 Climbing Albuquerque Center
Fri 02:55:14 PM 33.4289 -111.7247 89° East 291 335 10,600 3,220 Climbing Albuquerque Center
Fri 02:56:16 PM 33.4514 -111.6167 76° East 334 384 13,200 2,661 Climbing Albuquerque Center
Fri 02:57:18 PM 33.4767 -111.5000 75° East 361 415 16,100 2,710 Climbing Albuquerque Center
Fri 02:58:20 PM 33.5028 -111.3742 76° East 389 448 18,800 2,661 Climbing Albuquerque Center
Fri 02:59:22 PM 33.5200 -111.2442 81° East 399 459 21,600 2,758 Climbing Albuquerque Center
Fri 03:00:24 PM 33.5553 -111.0850 75° East 413 475 24,500 2,419 Climbing Albuquerque Center
Fri 03:01:26 PM 33.5836 -110.9464 76° East 426 490 26,600 2,129 Climbing Albuquerque Center
Fri 03:02:28 PM 33.6144 -110.8039 75° East 439 505 28,900 1,935 Climbing Albuquerque Center
Fri 03:03:30 PM 33.6442 -110.6625 76° East 440 506 30,600 1,742 Climbing Albuquerque Center
Fri 03:04:32 PM 33.6719 -110.5186 77° East 443 510 32,500 1,887 Climbing Albuquerque Center
Fri 03:05:34 PM 33.7036 -110.3656 76° East 441 507 34,500 1,597 Climbing Albuquerque Center
Fri 03:06:36 PM 33.7325 -110.2244 76° East 439 505 35,800 1,056 Climbing Albuquerque Center
Fri 03:07:39 PM 33.7611 -110.0819 76° East 441 507 36,700 576 Climbing Albuquerque Center
Fri 03:08:41 PM 33.7969 -109.9047 76° East 453 521 37,000 145 Climbing Albuquerque Center
Fri 03:09:43 PM 33.8275 -109.7517 76° East 467 537 37,000  Level Albuquerque Center
Fri 03:10:45 PM 33.8578 -109.5986 77° East 472 543 37,000 242 Level Albuquerque Center
Fri 03:11:47 PM 33.8883 -109.4444 77° East 474 545 37,500 532 Climbing Albuquerque Center
Fri 03:12:49 PM 33.9200 -109.2875 76° East 480 552 38,100 726 Climbing Albuquerque Center
Fri 03:13:51 PM 33.9572 -109.0922 77° East 494 568 39,000 435 Climbing Albuquerque Center
Fri 03:14:53 PM 33.9881 -108.9314 77° East 496 571 39,000  Level Albuquerque Center
Fri 03:15:55 PM 34.0192 -108.7733 77° East 492 566 39,000  Level Albuquerque Center
Fri 03:16:57 PM 34.0489 -108.6119 77° East 493 567 39,000  Level Albuquerque Center
Fri 03:17:59 PM 34.0792 -108.4500 77° East 498 573 39,000  Level Albuquerque Center
Fri 03:19:01 PM 34.1147 -108.2578 77° East 494 568 39,000  Level Albuquerque Center
Fri 03:20:03 PM 34.1433 -108.0958 78° East 496 571 39,000  Level Albuquerque Center
Fri 03:21:05 PM 34.1736 -107.9347 77° East 494 568 39,000  Level Albuquerque Center
Fri 03:22:07 PM 34.2028 -107.7706 78° East 497 572 39,000  Level Albuquerque Center
Fri 03:23:09 PM 34.2319 -107.6053 78° East 501 577 39,000  Level Albuquerque Center
Fri 03:24:11 PM 34.2617 -107.4433 77° East 498 573 39,000  Level Albuquerque Center
Fri 03:25:13 PM 34.2911 -107.2797 78° East 498 573 39,000  Level Albuquerque Center
Fri 03:26:15 PM 34.3353 -107.1058 73° East 492 566 39,000  Level Albuquerque Center
Fri 03:27:17 PM 34.4028 -106.9633 60° Northeast 492 566 39,000  Level Albuquerque Center
Fri 03:28:20 PM 34.4528 -106.8106 68° East 494 568 39,000  Level Albuquerque Center
Fri 03:29:22 PM 34.4811 -106.6139 80° East 499 574 39,000  Level Albuquerque Center
Fri 03:30:24 PM 34.5019 -106.4481 81° East 500 575 39,000  Level Albuquerque Center
Fri 03:31:26 PM 34.5242 -106.2836 81° East 499 574 39,000  Level Albuquerque Center
Fri 03:32:28 PM 34.5481 -106.0994 81° East 497 572 39,000  Level Albuquerque Center
Fri 03:33:30 PM 34.5686 -105.9331 81° East 495 570 39,000  Level Albuquerque Center
Fri 03:34:32 PM 34.5914 -105.7664 81° East 496 571 39,000  Level Albuquerque Center
Fri 03:35:34 PM 34.6125 -105.6000 81° East 495 570 39,000  Level Albuquerque Center
Fri 03:36:36 PM 34.6353 -105.4342 80° East 495 570 39,000  Level Albuquerque Center
Fri 03:37:38 PM 34.6581 -105.2383 82° East 497 572 39,000  Level Albuquerque Center
Fri 03:38:40 PM 34.6786 -105.0714 81° East 496 571 39,000  Level Albuquerque Center
Fri 03:39:42 PM 34.6983 -104.9056 82° East 494 568 39,000  Level Albuquerque Center
Fri 03:40:44 PM 34.7200 -104.7408 81° East 492 566 39,000  Level Albuquerque Center
Fri 03:41:46 PM 34.7389 -104.5753 82° East 492 566 39,000  Level Albuquerque Center
Fri 03:42:48 PM 34.7586 -104.4117 82° East 489 563 39,000  Level Albuquerque Center
Fri 03:43:50 PM 34.7817 -104.2175 82° East 494 568 39,000  Level Albuquerque Center
Fri 03:44:52 PM 34.7997 -104.0531 82° East 492 566 39,000  Level Albuquerque Center
Fri 03:45:54 PM 34.8189 -103.8875 82° East 494 568 39,000  Level Albuquerque Center
Fri 03:46:56 PM 34.8381 -103.7222 82° East 493 567 39,000  Level Albuquerque Center
Fri 03:47:58 PM 34.8567 -103.5575 82° East 491 565 39,000  Level Albuquerque Center
Fri 03:49:00 PM 34.8736 -103.3908 83° East 493 567 39,000  Level Albuquerque Center
Fri 03:50:03 PM 34.8961 -103.1947 82° East 496 571 39,000  Level Albuquerque Center
Fri 03:51:05 PM 34.9125 -103.0267 83° East 496 571 39,000  Level Albuquerque Center
Fri 03:52:07 PM 34.9303 -102.8597 83° East 496 571 39,000  Level Albuquerque Center
Fri 03:53:09 PM 34.9478 -102.6900 83° East 498 573 39,000  Level Albuquerque Center
Fri 03:54:11 PM 34.9644 -102.5183 83° East 503 579 39,000  Level Albuquerque Center
Fri 03:55:13 PM 34.9817 -102.3511 83° East 502 578 39,000  Level Albuquerque Center
Fri 03:56:15 PM 34.9981 -102.1822 83° East 503 579 39,000  Level Albuquerque Center
Fri 03:57:17 PM 35.0178 -101.9800 83° East 503 579 39,000  Level Albuquerque Center
Fri 03:58:19 PM 35.0369 -101.8086 82° East 505 581 39,000  Level Albuquerque Center
Fri 03:59:21 PM 35.0514 -101.6364 84° East 503 579 39,000  Level Albuquerque Center
Fri 04:00:23 PM 35.0661 -101.4678 84° East 501 577 39,000  Level Albuquerque Center
Fri 04:01:25 PM 35.0833 -101.2836 83° East 497 572 39,000  Level Albuquerque Center
Fri 04:02:27 PM 35.0981 -101.1156 84° East 501 577 39,000  Level Albuquerque Center
Fri 04:03:29 PM 35.1131 -100.9481 84° East 500 575 39,000  Level Albuquerque Center
Fri 04:04:31 PM 35.1283 -100.7808 84° East 499 574 39,000  Level Albuquerque Center
Fri 04:06:35 PM 35.1586 -100.4161 84° East 491 565 39,000  Level Albuquerque Center
Fri 04:07:37 PM 35.1714 -100.2606 84° East 494 568 39,000  Level Albuquerque Center
Fri 04:08:39 PM 35.1856 -100.0958 84° East 490 564 39,000  Level Albuquerque Center
Fri 04:09:41 PM 35.1983 -99.9311 85° East 488 562 39,000  Level Albuquerque Center
Fri 04:10:43 PM 35.2111 -99.7650 85° East 490 564 39,000  Level Albuquerque Center
Fri 04:11:45 PM 35.2267 -99.5656 84° East 492 566 39,000  Level Albuquerque Center
Fri 04:12:47 PM 35.2400 -99.3997 84° East 492 566 39,000  Level Albuquerque Center
Fri 04:13:39 PM 35.2486 -99.2617 86° East 487 560 39,000  Level Fort Worth Center
Fri 04:14:39 PM 35.2594 -99.0942 85° East 492 566 39,000  Level Fort Worth Center
Fri 04:15:39 PM 35.2739 -98.9267 84° East 497 572 39,000  Level Fort Worth Center
Fri 04:16:39 PM 35.2822 -98.7589 86° East 497 572 39,000  Level Fort Worth Center
Fri 04:17:39 PM 35.2964 -98.5911 84° East 497 572 39,000  Level Fort Worth Center
Fri 04:18:39 PM 35.3081 -98.4311 85° East 492 566 39,000  Level Fort Worth Center
Fri 04:19:39 PM 35.3178 -98.2633 86° East 485 558 39,000  Level Fort Worth Center
Fri 04:20:39 PM 35.3272 -98.0981 86° East 485 558 39,000  Level Fort Worth Center
Fri 04:21:39 PM 35.3383 -97.9250 85° East 490 564 39,000  Level Fort Worth Center
Fri 04:22:39 PM 35.3472 -97.7725 86° East 499 574 39,000  Level Fort Worth Center
Fri 04:23:39 PM 35.3519 -97.5714 88° East 499 574 39,000  Level Fort Worth Center
Fri 04:24:39 PM 35.3375 -97.4161 96° East 498 573 39,000  Level Fort Worth Center
Fri 04:25:39 PM 35.3206 -97.2431 97° East 503 579 39,000  Level Fort Worth Center
Fri 04:26:39 PM 35.2972 -97.0525 98° East 503 579 39,000  Level Fort Worth Center
Fri 04:27:39 PM 35.2800 -96.8847 97° East 503 579 39,000  Level Fort Worth Center
Fri 04:28:39 PM 35.2625 -96.7144 97° East 503 579 39,000  Level Fort Worth Center
Fri 04:29:39 PM 35.2428 -96.5442 98° East 503 579 39,000  Level Fort Worth Center
Fri 04:30:39 PM 35.2247 -96.3742 97° East 503 579 39,000  Level Fort Worth Center
Fri 04:31:39 PM 35.2044 -96.2017 98° East 503 579 39,000  Level Fort Worth Center
Fri 04:32:39 PM 35.1839 -96.0317 98° East 503 579 39,000  Level Fort Worth Center
Fri 04:33:39 PM 35.1678 -95.8975 98° East 503 579 39,000  Level Fort Worth Center
Fri 04:34:39 PM 35.1508 -95.7122 96° East 503 579 39,000  Level Fort Worth Center
Fri 04:36:17 PM 35.1169 -95.4314 98° East 518 596 39,000 -342 Level Memphis Center
Fri 04:37:17 PM 35.0892 -95.2394 100° East 524 603 38,100 -950 Descending Memphis Center
Fri 04:38:17 PM 35.0667 -95.0658 99° East 525 604 37,100 -700 Descending Memphis Center
Fri 04:39:17 PM 35.0450 -94.9175 100° East 519 597 36,700 -700 Descending Memphis Center
Fri 04:40:17 PM 35.0242 -94.7464 98° East 507 583 35,700 -1,900 Descending Memphis Center
Fri 04:41:17 PM 34.9972 -94.5525 100° East 507 583 32,900 -2,700 Descending Memphis Center
Fri 04:42:17 PM 34.9758 -94.3867 99° East 513 590 30,300 -2,380 Descending Memphis Center
Fri 04:43:18 PM 34.9581 -94.2236 98° East 498 573 28,100 -2,150 Descending Memphis Center
Fri 04:44:17 PM 34.9375 -94.0706 99° East 481 554 26,000 -2,067 Descending Memphis Center
Fri 04:45:17 PM 34.9169 -93.9228 100° East 455 524 24,000 -1,950 Descending Memphis Center
Fri 04:46:17 PM 34.9000 -93.7803 98° East 435 501 22,100 -2,050 Descending Memphis Center
Fri 04:47:17 PM 34.8808 -93.6431 100° East 423 487 19,900 -2,250 Descending Memphis Center
Fri 04:48:17 PM 34.8633 -93.5056 99° East 418 481 17,600 -2,150 Descending Memphis Center
Fri 04:49:17 PM 34.8436 -93.3733 100° East 405 466 15,600 -2,000 Descending Memphis Center
Fri 04:50:17 PM 34.8261 -93.2411 99° East 399 459 13,600 -1,950 Descending Memphis Center
Fri 04:51:17 PM 34.8100 -93.1142 99° East 391 450 11,700 -1,650 Descending Memphis Center
Fri 04:52:17 PM 34.7917 -92.9972 101° East 373 429 10,300 -1,300 Descending Memphis Center
Fri 04:53:17 PM 34.7794 -92.8881 98° East 345 397 9,100 -650 Descending Memphis Center
Fri 04:54:17 PM 34.7628 -92.7839 101° East 323 372 9,000 -615 Descending Memphis Center
Fri 04:55:14 PM 34.7478 -92.6925 101° East 309 356 7,900 -1,475 Descending Memphis Center
Fri 04:56:15 PM 34.7331 -92.5886 100° East 303 349 6,100 -1,366 Descending Memphis Center
Fri 04:57:17 PM 34.7200 -92.4897 99° East 299 344 5,100 -976 Descending Memphis Center
Fri 04:58:18 PM 34.6986 -92.4058 107° East 272 313 4,100 -1,140 Descending Memphis Center
Fri 04:59:18 PM 34.6789 -92.3369 109° East 239 275 2,800 -1,160 Descending Memphis Center
Fri 05:00:17 PM 34.6794 -92.2892 89° East 168 193 1,800 -908 Descending Memphis Center
Fri 05:01:17 PM 34.6908 -92.2389 75° East 156 180 1,000 3,600 Descending Memphis Center
Fri 05:02:17 PM 34.6914 -92.1883 89° East 156 180 9,000 3,967 Climbing Memphis Center
Fri 05:03:18 PM 34.6922 -92.1378 89° East 156 180 9,000  Level Memphis Center
Fri 05:04:18 PM 34.6928 -92.0872 89° East 156 180 9,000  Level Memphis Center
Fri 05:05:17 PM 34.6933 -92.0569 89° East 156 180 9,000  Level Memphis Center
Fri 05:06:17 PM 34.6933 -92.0569 312° West 156 180 9,000  Level Memphis Center
Fri 05:09:00 PM 34.7167 -92.2167 284° West  Level FlightAware Approximate
Fri 05:16:00 PM 34.7294 -92.2248 284° West  Level Estimated
Fri 05:17:00 PM 34.7294 -92.2248 284° West  Level Estimated
Fri 05:18:00 PM 34.7294 -92.2248 284° West  Level Estimated

Login

Don't have an account? Register now (free) for customized features, flight alerts, and more!